Flight Track Log - Related Links

Times and Time Zones

All times are in EST time to prevent confusion due to time zone crossing. See the EJA929 flight status page for this flight to view local times or setup timezone preferences in your user account.


Time Position Orientation Groundspeed Altitude Reporting Facility
EST Latitude Longitude Course Direction KTS MPH feet Rate Location/Type
Fri 01:20:32 PM 25.8017 -80.3044 291° West 169 194 800  Level Miami Center
Fri 01:21:42 PM 25.8231 -80.3675 291° West 229 264 4,400 3,324 Climbing Miami Center
Fri 01:21:46 PM 25.8208 -80.3789 258° West 242 278 4,900 2,600 Climbing Miami Center
Fri 01:22:42 PM 25.8403 -80.4372 290° West 240 276 7,000 2,066 Climbing Miami Center
Fri 01:22:47 PM 25.8397 -80.4533 268° West 250 288 7,000  Level Miami Center
Fri 01:23:42 PM 25.8614 -80.5117 292° West 240 276 7,000  Level Miami Center
Fri 01:23:48 PM 25.8608 -80.5303 268° West 241 277 7,000  Level Miami Center
Fri 01:24:42 PM 25.8953 -80.5728 312° West 260 299 7,000  Level Miami Center
Fri 01:24:55 PM 25.9117 -80.5850 326° Northwest 257 296 7,000 400 Level Miami Center
Fri 01:25:42 PM 25.9611 -80.6119 334° Northwest 260 299 7,400 1,347 Climbing Miami Center
Fri 01:25:44 PM 25.9653 -80.6189 304° West 266 306 8,100 3,700 Climbing Miami Center
Fri 01:26:42 PM 26.0269 -80.6531 334° Northwest 287 330 11,100 2,847 Climbing Miami Center
Fri 01:27:42 PM 26.0967 -80.6994 329° Northwest 292 336 13,700 2,450 Climbing Miami Center
Fri 01:28:42 PM 26.1747 -80.7481 331° Northwest 303 349 16,000 2,400 Climbing Miami Center
Fri 01:29:42 PM 26.2567 -80.8111 325° Northwest 319 367 18,500 1,900 Climbing Miami Center
Fri 01:30:42 PM 26.3217 -80.8806 316° Northwest 342 394 19,800 750 Climbing Miami Center
Fri 01:31:42 PM 26.4111 -80.9692 318° Northwest 376 433 20,000 100 Climbing Miami Center
Fri 01:32:42 PM 26.4903 -81.0464 319° Northwest 405 466 20,000  Level Miami Center
Fri 01:33:42 PM 26.5756 -81.1328 318° Northwest 416 479 20,000  Level Miami Center
Fri 01:34:42 PM 26.6606 -81.2197 318° Northwest 416 479 20,000  Level Miami Center
Fri 01:35:42 PM 26.7517 -81.3136 317° Northwest 405 466 20,000  Level Miami Center
Fri 01:36:42 PM 26.8325 -81.3983 317° Northwest 405 466 20,000  Level Miami Center
Fri 01:37:42 PM 26.9131 -81.4922 314° West 405 466 20,000  Level Miami Center
Fri 01:38:42 PM 26.9836 -81.5742 314° West 405 466 20,000 -500 Level Miami Center
Fri 01:39:42 PM 27.0639 -81.6708 313° West 410 472 19,000 -1,650 Descending Miami Center
Fri 01:40:42 PM 27.1461 -81.7697 313° West 405 466 16,700 -2,300 Descending Miami Center
Fri 01:41:42 PM 27.2183 -81.8569 313° West 392 451 14,400 -2,300 Descending Miami Center
Fri 01:42:42 PM 27.2883 -81.9417 313° West 380 437 12,100 -1,750 Descending Miami Center
Fri 01:43:42 PM 27.3564 -82.0242 313° West 369 425 10,900 -600 Descending Miami Center
Fri 01:44:42 PM 27.4144 -82.0897 315° West 335 386 10,900  Level Miami Center
Fri 01:45:42 PM 27.4644 -82.1531 312° West 293 337 10,900  Level Miami Center
Fri 01:46:42 PM 27.5164 -82.2161 313° West 273 314 10,900 -650 Level Miami Center
Fri 01:47:42 PM 27.5686 -82.2725 316° Northwest 260 299 9,600 -1,650 Descending Miami Center
Fri 01:48:42 PM 27.6183 -82.3358 312° West 260 299 7,600 -1,728 Descending Miami Center
Fri 01:49:47 PM 27.6667 -82.4000 310° West 260 299 6,000 -1,160 Descending Tampa TRACON
Fri 01:50:41 PM 27.7167 -82.4500 318° Northwest 258 297 5,300 -1,316 Descending Tampa TRACON
Fri 01:51:41 PM 27.7833 -82.4833 336° Northwest 253 291 3,500 -1,400 Descending Tampa TRACON
Fri 01:52:41 PM 27.8333 -82.5333 319° Northwest 229 264 2,500 -700 Descending Tampa TRACON
Fri 01:53:41 PM 27.8833 -82.5333 360° North 127 146 2,100 -700 Descending Tampa TRACON
Fri 01:54:41 PM 27.9167 -82.5333 360° North 113 130 1,100 -850 Descending Tampa TRACON
Fri 01:55:41 PM 27.9500 -82.5333 360° North 126 145 400 -700 Descending Tampa TRACON
Fri 01:57:00 PM 27.9667 -82.5167 41° Northeast  Level FlightAware Approximate

Login

Don't have an account? Register now (free) for customized features, flight alerts, and more!